Wynyard, Canada
Current Conditions -  °F | °C
As of 8:57 AM on Friday 28 Nov 2014 (Local Time) from CYQV Reporting Station
Light Snow Light Snow  
Wind Chill: -15°   Ceiling: 1600
Heat Index:   Visibility: 2mi
Dew Point:   Wind: 14mph
Humidity: 85%   Direction: 90°E
Pressure: 29.84"   Gusts: 20mph
Location:  51.77°N, 104.18°W
Report Text: CYQV 281457Z AUTO 09012G17KT 2SM -SN OVC016 M16/M18 A2984 RMK PRESFR SLP151
Loading
Personal Weather Stations






























Interactive Weather Map New forecast layout! Learn more

10-Day Weather Forecast

Advertisements
Track Severe Weather on mobile